Reklama

Seznam meteostanic a jejich METAR

Vyhledat místa podle abecedy:
A B C D E F G H I J K L M N O P Q R S T U V W X Y Z

Filtrovat:

ID stanice:
a/nebo
Název místa (fulltext):
 
Místo (ID)Naposledy načteno 
Aalborg (EKYT) 31.05.2020 03:50 UTC Zobrazit METAR
EKYT 310350Z 02005KT 9999 NSC 11/08 Q1030
Aarhus (EKAH) 26.03.2020 11:50 UTC Zobrazit METAR
EKAH 261150Z 14009KT 100V190 CAVOK 10/M06 Q1031
Abu Dhabi (OMAA) 31.05.2020 04:00 UTC Zobrazit METAR
OMAA 310400Z 18011KT 150V210 3000 DU NSC 36/20 Q1005 BECMG 5000
Abuja (DNAA) 30.05.2020 11:00 UTC Zobrazit METAR
DNAA 301100Z 29004KT 9999 BKN013 31/24 Q1013 NOSIG
Accra (DGAA) 31.05.2020 04:00 UTC Zobrazit METAR
DGAA 310400Z 32002KT CAVOK 24/23 Q1012 NOSIG
Addis Abeba (HAAB) 31.05.2020 04:00 UTC Zobrazit METAR
HAAB 310400Z 34003KT 9999 FEW025 13/11 Q1028
Agana (PGUM) 31.05.2020 03:54 UTC Zobrazit METAR
PGUM 310354Z 08007KT 10SM BKN100 28/24 A2996 RMK AO2 SLP137 T02830244 $
Ahe Island (NTHE) Zatím nenačteno  
Akureyri (BIAR) 31.05.2020 04:00 UTC Zobrazit METAR
BIAR 310400Z 18003KT 140V200 CAVOK 05/01 Q1019 RMK WIND VADLAHEIDI 16311KT
Almaty (UAAA) Zatím nenačteno  
Amman (OJAM) 31.05.2020 04:00 UTC Zobrazit METAR
OJAM 310400Z 06003KT CAVOK 15/07 Q1018 NOSIG
Amsterdam (EHAM) 31.05.2020 03:55 UTC Zobrazit METAR
EHAM 310355Z 07007KT CAVOK 13/08 Q1024 NOSIG
Antananarivo (FMMI) 31.05.2020 04:00 UTC Zobrazit METAR
FMMI 310400Z VRB02KT 9999 FEW017 14/13 Q1025 NOSIG
Antwerp (EBAW) 31.05.2020 03:50 UTC Zobrazit METAR
EBAW 310350Z AUTO 06003KT CAVOK 12/04 Q1022
Apia (NSFA) 30.05.2020 05:00 UTC Zobrazit METAR
NSFA 300500Z 12004KT 9999 FEW022 SCT054 BKN260 28/26 Q1015 RMK
Aruba I (TNCA) 31.05.2020 04:00 UTC Zobrazit METAR
TNCA 310400Z 09017KT 9999 SCT016 28/24 Q1013 NOSIG
Ascension I. (FHAW) 27.05.2020 08:50 UTC Zobrazit METAR
FHAW 270850Z 13012KT 9999 FEW026 27/19 Q1015 NOSIG RMK BLU BLU
Ashgabat (UTAA) 31.05.2020 04:00 UTC Zobrazit METAR
UTAA 310400Z 00000KT 9999 NSC 34/01 Q1010 R88/CLRD70 NOSIG
Asmara (HHAS) 03.02.2015 17:00 UTC Zobrazit METAR
HHAS 031700Z 27004KT CAVOK 15/06 Q1028 NOSIG
Astana (UACC) Zatím nenačteno  
Astrakhan (URWA) Zatím nenačteno  
Asuncion (SGAS) 31.05.2020 04:00 UTC Zobrazit METAR
SGAS 310400Z 07005KT 9999 SCT033 BKN083 24/16 Q1013
Athens (LGAV) 31.05.2020 03:50 UTC Zobrazit METAR
LGAV 310350Z VRB02KT 9999 FEW020 SCT070 14/11 Q1014 NOSIG
Reklama

Lunární kalendář

  • 05.06.Fáze měsíce uplnek
  • 13.06.Fáze měsíce posl_ctvrt
  • 21.06.Fáze měsíce nov
  • 28.06.Fáze měsíce prv_ctvrt



Reklama
Meteodomečky

Počasí na Váš email

Emaily jsou bez reklamy a bez spamu



Odhlásit newsletter

Reklama


Další české internetové stránky (nejen) o počasí najdete v katalogu TOPlist - weby o počasí nebo vyhledejte na internetu, co jste tu na 🌞 Slunečnu ⛅ zatím nenašli:

Reklama